Port Kent, New York
Current Conditions -  °F | °C
As of 7:53 AM on Thursday 30 Oct 2014 (Local Time) from KPBG Reporting Station
Overcast Overcast  
Wind Chill: 41°   Ceiling: 4200
Heat Index: 45°   Visibility: 10mi
Dew Point: 38°   Wind: 7mph
Humidity: 76%   Direction: 320°NW
Pressure: 29.93"   Gusts: NA
Location:  44.53°N, 73.41°W
Report Text: KPBG 301153Z AUTO 32006KT 10SM OVC042 07/03 A2993 RMK AO2 SLP137 T00720033 10094 20044 53021
Loading
Personal Weather Stations






























Interactive Weather Map
Tropical Storm Tracking
New forecast layout! Learn more

10-Day Weather Forecast

Advertisements
Track Severe Weather on mobile